Terminal Aerodrome Forecast
Issued by NWS Caribou, ME

Home | Current Version | Previous Version | Text Only | Print | Product List | Glossary On
Versions: 1 2 3 4 5 6 7 8 9 10 11 12 13 14 15 16 17 18 19 20
000
FTUS41 KCAR 270533
TAFCAR
TAF
KCAR 270533Z 2706/2806 24005KT P6SM SCT100
     FM271600 20011KT P6SM -SHRA BKN045
     FM271800 20012G20KT P6SM -SHRA VCTS SCT030 OVC040CB
     FM280100 21009KT P6SM BKN035
     FM280200 21008KT P6SM BKN030=

USA.gov is the U.S. government's official web portal to all federal, state and local government web resources and services.